メインページ
METAR-TAF:

METAR-TAF

空港 :

アムステルダム・スキポール空港

アムステルダム, オランダ

緯度: 52-18N, 経度: 004-46E, 海抜: -4m

現時点の気象観測

当レポートは11分前の07:25(UTC)に作成
南/南西の風 11kt
気温 18°C
湿度 83%
気圧 1019 hPa
視程10km以上
高度1200ftの雲はほとんどない
高度3100ftの千切れ雲あり

METAR: EHAM 190725Z 20011KT 9999 FEW012 BKN031 18/15 Q1019 NOSIG

時間: 09:36 (07:36 UTC)

予報

当レポートは2時間56分前の04:40(UTC)に作成
予報は19日の 06時(UTC)から 20日の 12時(UTC)まで有効
南/南西の風 6kt
視程10km以上
高度3000ftの千切れ雲あり
確率 30% :
19日の 06時(UTC)から 19日の 08時(UTC)まで一時的に
高度600ftの雲は散在している
高度1100ftの千切れ雲あり
19日の 08時(UTC)から 19日の 11時(UTC)まで徐々に
南西の風 14kt
19日の 18時(UTC)から 19日の 21時(UTC)まで徐々に
南西の風 8kt
高度1400ftの千切れ雲あり
確率 40%
19日の 22時(UTC)から 20日の 05時(UTC)まで
視程: 6000m
高度800ftの千切れ雲あり
20日の 01時(UTC)から 20日の 04時(UTC)まで徐々に
北西の風 7kt

TAF: EHAM 190440Z 1906/2012 21006KT 9999 BKN030 PROB30 TEMPO 1906/1908 SCT006 BKN011 BECMG 1908/1911 23014KT BECMG 1918/1921 23008KT BKN014 PROB40 1922/2005 6000 BKN008 BECMG 2001/2004 31007KT

4,000以上の空港の気象観測と天気予報(METAR報とTAF報)

利用可能な観測所は地図上に黄色い丸と赤い丸で示す。

丸の上にカーソルを重ねると観測所名を参照できる。

次にクリックすると気象観測と天気予報を参照できる。

マップの切り替え:黒色「×」印の緑ボタンをクリックして拡大、「-」印の緑ボタンをクリックして縮小、緑色の三角印をクリックして隣りの地図に切り替え


METAR-TAF: